Time;durP1;ratioP1;P1;durP2;ratioP2;P2;SDS_P1;SDS_P2;PMS_P1;PMS_P2;Temp;Humidity;BMP_temperature;BMP_pressure;BME280_temperature;BME280_humidity;BME280_pressure;Samples;Min_cycle;Max_cycle;Signal;HPM_P1;HPM_P2
2021/05/11 00:02:07;;;;;;;4.65;3.30;;;14.60;99.90;;;;;;5067624;28;20041;-66
2021/05/11 00:04:33;;;;;;;5.25;3.72;;;14.60;99.90;;;;;;5068273;28;20048;-67
2021/05/11 00:06:59;;;;;;;8.02;3.90;;;14.60;99.90;;;;;;5081925;28;20075;-67
2021/05/11 00:09:25;;;;;;;6.18;3.80;;;14.70;99.90;;;;;;5073999;28;20045;-66
2021/05/11 00:11:51;;;;;;;6.32;4.30;;;14.70;99.90;;;;;;5068309;28;20041;-67
2021/05/11 00:14:17;;;;;;;5.00;4.10;;;14.70;99.90;;;;;;5068470;28;20101;-67
2021/05/11 00:16:43;;;;;;;5.35;4.25;;;14.60;99.90;;;;;;5068395;28;20049;-67
2021/05/11 00:19:11;;;;;;;5.95;4.28;;;14.60;99.90;;;;;;5067969;28;20045;-67
2021/05/11 00:21:37;;;;;;;4.32;3.75;;;14.60;99.90;;;;;;5067508;28;20091;-66
2021/05/11 00:24:04;;;;;;;5.40;3.50;;;14.50;99.90;;;;;;5067920;28;20044;-67
2021/05/11 00:26:30;;;;;;;4.55;3.65;;;14.50;99.90;;;;;;5067847;28;20045;-67
2021/05/11 00:28:55;;;;;;;5.68;3.50;;;14.60;99.90;;;;;;5067246;28;20037;-67
2021/05/11 00:31:21;;;;;;;6.22;3.97;;;14.60;99.90;;;;;;5066881;28;20136;-67
2021/05/11 00:33:47;;;;;;;4.53;3.30;;;14.60;99.90;;;;;;5066688;28;20055;-68
2021/05/11 00:36:13;;;;;;;6.97;4.82;;;14.60;99.90;;;;;;5066986;28;20095;-67
2021/05/11 00:38:39;;;;;;;7.03;4.55;;;14.60;99.90;;;;;;5066974;28;20053;-66
2021/05/11 00:41:05;;;;;;;6.15;4.20;;;14.60;99.90;;;;;;5066769;28;20117;-67
2021/05/11 00:43:31;;;;;;;5.00;4.40;;;14.60;99.90;;;;;;5067014;28;20446;-67
2021/05/11 00:45:59;;;;;;;5.32;4.22;;;14.40;99.90;;;;;;5066927;28;20048;-68
2021/05/11 00:48:24;;;;;;;5.18;4.32;;;14.30;99.90;;;;;;5066440;28;20053;-67
2021/05/11 00:50:50;;;;;;;5.93;4.53;;;14.30;99.90;;;;;;5066816;28;20072;-67
2021/05/11 00:53:16;;;;;;;7.35;5.07;;;14.20;99.90;;;;;;5073103;28;20041;-68
2021/05/11 00:55:44;;;;;;;5.13;4.28;;;14.20;99.90;;;;;;5066704;28;20049;-66
2021/05/11 00:58:11;;;;;;;8.48;5.30;;;14.20;99.90;;;;;;5066470;28;20040;-68
2021/05/11 01:00:37;;;;;;;5.40;4.60;;;14.20;99.90;;;;;;5066454;28;20041;-67
2021/05/11 01:03:03;;;;;;;10.95;5.30;;;14.30;99.90;;;;;;5067432;28;20037;-67
2021/05/11 01:05:29;;;;;;;5.53;4.90;;;14.30;99.90;;;;;;5067457;28;20083;-68
2021/05/11 01:07:55;;;;;;;5.97;5.10;;;14.30;99.90;;;;;;5066545;28;20127;-67
2021/05/11 01:10:21;;;;;;;6.88;4.57;;;14.30;99.90;;;;;;5067428;28;20053;-67
2021/05/11 01:12:46;;;;;;;7.28;5.28;;;14.30;99.90;;;;;;5067006;28;20067;-68
2021/05/11 01:15:13;;;;;;;6.38;5.53;;;14.30;99.90;;;;;;5066478;28;20127;-67
2021/05/11 01:17:41;;;;;;;6.22;5.60;;;14.30;99.90;;;;;;5065695;28;20087;-67
2021/05/11 01:20:14;;;;;;;6.68;4.97;;;14.30;99.90;;;;;;5065868;28;20101;-68
2021/05/11 01:25:29;;;;;;;6.72;5.40;;;14.20;99.90;;;;;;5071372;28;20045;-66
2021/05/11 01:45:17;;;;;;;5.65;5.05;;;14.20;99.90;;;;;;5054333;28;20037;-66
2021/05/11 01:50:03;;;;;;;6.63;5.30;;;14.20;99.90;;;;;;5065559;28;20152;-67
2021/05/11 02:24:57;;;;;;;8.40;6.43;;;14.20;99.90;;;;;;5064937;28;20485;-66
2021/05/11 02:27:23;;;;;;;8.23;6.70;;;14.20;99.90;;;;;;5065020;28;20083;-67
2021/05/11 02:29:49;;;;;;;9.02;7.03;;;14.20;99.90;;;;;;5064603;28;20044;-66
2021/05/11 02:32:16;;;;;;;8.80;7.75;;;14.20;99.90;;;;;;5064922;28;20064;-66
2021/05/11 02:34:43;;;;;;;10.77;7.15;;;14.20;99.90;;;;;;5078449;28;20493;-67
2021/05/11 02:37:09;;;;;;;9.65;7.88;;;14.20;99.90;;;;;;5064840;28;20075;-66
2021/05/11 02:39:35;;;;;;;10.15;8.30;;;14.10;99.90;;;;;;5064598;28;20047;-66
2021/05/11 02:42:05;;;;;;;10.60;8.43;;;14.10;99.90;;;;;;5065133;28;20135;-66
2021/05/11 02:44:38;;;;;;;13.32;8.75;;;14.00;99.90;;;;;;5065181;28;20575;-66
2021/05/11 02:47:04;;;;;;;9.30;8.13;;;14.00;99.90;;;;;;5072884;28;20052;-67
2021/05/11 02:49:29;;;;;;;10.20;8.95;;;14.00;99.90;;;;;;5069536;28;20049;-65
2021/05/11 02:51:55;;;;;;;10.68;8.65;;;13.90;99.90;;;;;;5064599;28;20059;-66
2021/05/11 02:54:21;;;;;;;10.70;9.00;;;13.80;99.90;;;;;;5065077;28;20052;-66
2021/05/11 02:56:47;;;;;;;10.60;9.48;;;13.70;99.90;;;;;;5064428;28;20128;-66
2021/05/11 02:59:13;;;;;;;8.68;7.13;;;13.70;99.90;;;;;;5064919;28;20056;-66
2021/05/11 03:01:39;;;;;;;7.93;7.13;;;13.70;99.90;;;;;;5077665;28;20083;-66
2021/05/11 03:04:05;;;;;;;9.98;6.60;;;13.70;99.90;;;;;;5064915;28;20053;-66
2021/05/11 03:06:31;;;;;;;8.75;4.78;;;13.70;99.90;;;;;;5068662;28;20095;-66
2021/05/11 03:08:57;;;;;;;5.30;4.80;;;13.70;99.90;;;;;;5070582;28;20098;-66
2021/05/11 03:11:23;;;;;;;9.48;7.35;;;13.70;99.90;;;;;;5068976;28;20520;-66
2021/05/11 03:13:48;;;;;;;8.70;7.78;;;13.60;99.90;;;;;;5078792;28;20638;-66
2021/05/11 03:16:15;;;;;;;9.45;8.00;;;13.50;99.90;;;;;;5070866;28;20051;-66
2021/05/11 03:18:43;;;;;;;13.98;9.15;;;13.50;99.90;;;;;;5069245;28;20045;-66
2021/05/11 03:21:09;;;;;;;10.60;8.45;;;13.50;99.90;;;;;;5068289;28;20049;-66
2021/05/11 03:23:35;;;;;;;8.50;7.70;;;13.50;99.90;;;;;;5068463;28;20060;-66
2021/05/11 03:26:01;;;;;;;10.88;8.15;;;13.60;99.90;;;;;;5068346;28;20064;-66
2021/05/11 03:28:27;;;;;;;8.32;7.45;;;13.60;99.90;;;;;;5067844;28;20053;-67
2021/05/11 03:30:52;;;;;;;6.97;6.28;;;13.70;99.90;;;;;;5067890;28;20440;-66
2021/05/11 03:33:18;;;;;;;8.00;5.72;;;13.80;99.90;;;;;;5069090;28;20076;-66
2021/05/11 03:35:44;;;;;;;7.53;5.55;;;13.90;99.90;;;;;;5071182;28;20044;-66
2021/05/11 03:38:10;;;;;;;6.95;5.55;;;13.90;99.90;;;;;;5078711;28;20045;-66
2021/05/11 03:40:37;;;;;;;6.85;5.88;;;13.90;99.90;;;;;;5069019;28;20066;-66
2021/05/11 03:43:16;;;;;;;7.00;6.30;;;13.90;99.90;;;;;;5083942;28;20086;-66
2021/05/11 03:45:50;;;;;;;9.75;7.53;;;13.80;99.90;;;;;;5067955;28;20045;-66
2021/05/11 03:48:16;;;;;;;8.00;6.32;;;13.70;99.90;;;;;;5067700;28;20060;-66
2021/05/11 03:50:42;;;;;;;7.63;6.10;;;13.70;99.90;;;;;;5067910;28;20044;-66
2021/05/11 03:53:08;;;;;;;7.60;6.65;;;13.70;99.90;;;;;;5067560;28;20559;-66
2021/05/11 03:55:33;;;;;;;7.38;6.55;;;13.70;99.90;;;;;;5081667;28;20045;-67
2021/05/11 03:57:59;;;;;;;7.93;7.10;;;13.70;99.90;;;;;;5068007;28;20048;-66
2021/05/11 04:00:25;;;;;;;6.80;6.13;;;13.80;99.90;;;;;;5065031;28;20512;-66
2021/05/11 04:02:51;;;;;;;5.32;4.70;;;13.80;99.90;;;;;;5057082;28;20075;-66
2021/05/11 04:05:20;;;;;;;5.50;4.30;;;13.80;99.90;;;;;;5068436;28;20079;-66
2021/05/11 04:07:48;;;;;;;5.88;4.28;;;13.70;99.90;;;;;;5073477;28;20526;-66
2021/05/11 04:10:51;;;;;;;4.72;4.15;;;13.70;99.90;;;;;;5067958;28;20045;-66
2021/05/11 04:18:22;;;;;;;7.22;5.75;;;13.40;99.90;;;;;;5066013;28;20041;-67
2021/05/11 04:20:48;;;;;;;5.82;4.60;;;13.40;99.90;;;;;;5066191;28;20058;-67
2021/05/11 04:23:14;;;;;;;6.82;4.65;;;13.40;99.90;;;;;;5067321;28;20055;-67
2021/05/11 04:25:40;;;;;;;4.47;3.67;;;13.30;99.90;;;;;;5066551;28;20064;-67
2021/05/11 04:28:06;;;;;;;5.05;3.13;;;13.40;99.90;;;;;;5066813;28;20068;-67
2021/05/11 04:30:32;;;;;;;4.68;3.10;;;13.50;99.90;;;;;;5066667;28;20049;-67
2021/05/11 04:32:57;;;;;;;3.92;2.83;;;13.40;99.90;;;;;;5077557;28;20571;-66
2021/05/11 04:35:24;;;;;;;6.25;3.42;;;13.50;99.90;;;;;;5069485;28;20258;-67
2021/05/11 04:37:49;;;;;;;3.08;2.78;;;13.40;99.90;;;;;;5066591;28;20060;-67
2021/05/11 04:40:16;;;;;;;6.10;2.92;;;13.40;99.90;;;;;;5065960;28;20045;-67
2021/05/11 04:42:43;;;;;;;4.47;3.70;;;13.30;99.90;;;;;;5066162;28;20110;-67
2021/05/11 04:45:11;;;;;;;4.75;3.53;;;13.20;99.90;;;;;;5066942;28;20045;-67
2021/05/11 04:47:47;;;;;;;5.05;3.20;;;13.20;99.90;;;;;;5066304;28;20041;-67
2021/05/11 04:50:22;;;;;;;4.47;3.05;;;13.30;99.90;;;;;;5066317;28;20045;-67
2021/05/11 04:52:48;;;;;;;3.13;2.67;;;13.30;99.90;;;;;;5065846;28;20045;-67
2021/05/11 04:55:18;;;;;;;4.18;2.80;;;13.40;99.90;;;;;;5065367;28;20049;-67
2021/05/11 04:57:45;;;;;;;4.07;2.83;;;13.40;99.90;;;;;;5065490;28;20052;-67
2021/05/11 05:00:13;;;;;;;3.75;2.83;;;13.40;99.90;;;;;;5065555;28;20045;-67
2021/05/11 05:02:42;;;;;;;3.60;2.60;;;13.50;99.90;;;;;;5065366;28;20192;-67
2021/05/11 05:05:08;;;;;;;3.38;2.20;;;13.40;99.90;;;;;;5052465;28;20128;-65
2021/05/11 05:07:38;;;;;;;2.72;2.13;;;13.40;99.90;;;;;;5071740;28;20109;-64
2021/05/11 05:10:05;;;;;;;3.45;2.28;;;13.30;99.90;;;;;;5059225;28;20076;-66
2021/05/11 05:12:31;;;;;;;2.88;2.58;;;13.30;99.90;;;;;;5082793;28;20108;-65
2021/05/11 05:14:57;;;;;;;3.08;2.20;;;13.20;99.90;;;;;;5082089;28;20052;-65
2021/05/11 05:17:23;;;;;;;2.45;2.10;;;13.20;99.90;;;;;;5034953;28;692843;-67
2021/05/11 05:19:49;;;;;;;3.70;2.40;;;13.20;99.90;;;;;;5085775;28;20129;-66
2021/05/11 05:22:16;;;;;;;3.28;2.25;;;13.20;99.90;;;;;;5080856;28;20051;-66
2021/05/11 05:24:50;;;;;;;3.08;2.40;;;13.20;99.90;;;;;;5073265;28;20119;-66
2021/05/11 05:27:22;;;;;;;2.25;2.05;;;13.30;99.90;;;;;;5065163;28;20087;-66
2021/05/11 05:29:49;;;;;;;3.45;2.17;;;13.30;99.90;;;;;;5066091;28;20056;-67
2021/05/11 05:32:15;;;;;;;2.45;2.25;;;13.30;99.90;;;;;;5068251;28;20056;-67
2021/05/11 05:34:41;;;;;;;2.28;2.08;;;13.30;99.90;;;;;;5050865;28;20151;-69
2021/05/11 05:37:08;;;;;;;2.28;1.88;;;13.40;99.90;;;;;;5067741;28;20047;-68
2021/05/11 05:39:40;;;;;;;2.13;1.95;;;13.40;99.90;;;;;;5049509;28;20090;-68
2021/05/11 05:42:06;;;;;;;3.63;2.40;;;13.50;99.90;;;;;;5078326;28;20041;-67
2021/05/11 05:44:32;;;;;;;3.50;3.20;;;13.50;99.90;;;;;;5063252;28;20131;-67
2021/05/11 05:46:58;;;;;;;4.97;4.57;;;13.60;99.90;;;;;;5079911;28;20061;-68
2021/05/11 05:49:27;;;;;;;6.07;5.47;;;13.60;99.90;;;;;;5051481;28;20048;-67
2021/05/11 05:52:00;;;;;;;9.27;7.43;;;13.70;99.90;;;;;;5063733;28;20045;-68
2021/05/11 05:54:28;;;;;;;9.48;8.55;;;13.70;99.90;;;;;;5059176;28;20051;-66
2021/05/11 05:56:54;;;;;;;9.10;8.07;;;13.70;99.90;;;;;;5084058;28;20051;-66
2021/05/11 05:59:20;;;;;;;8.57;7.13;;;13.70;99.90;;;;;;5058135;28;20052;-67
2021/05/11 06:01:48;;;;;;;7.35;6.30;;;13.80;99.90;;;;;;5087944;28;20049;-68
2021/05/11 06:04:18;;;;;;;7.47;4.93;;;13.90;99.90;;;;;;5050139;28;20048;-71
2021/05/11 06:07:04;;;;;;;5.75;4.63;;;13.90;99.90;;;;;;5071844;28;20510;-70
2021/05/11 06:09:30;;;;;;;4.35;3.40;;;13.70;99.90;;;;;;5068404;28;20558;-68
2021/05/11 06:12:01;;;;;;;3.78;3.33;;;13.70;99.90;;;;;;5081654;28;20033;-68
2021/05/11 06:17:16;;;;;;;3.60;3.10;;;13.70;99.90;;;;;;5085566;28;20060;-69
2021/05/11 06:19:47;;;;;;;4.22;2.97;;;13.90;99.90;;;;;;5058693;28;20084;-68
2021/05/11 06:22:13;;;;;;;4.95;3.10;;;13.90;99.90;;;;;;5088117;28;20033;-69
2021/05/11 06:24:40;;;;;;;3.58;2.80;;;14.00;99.90;;;;;;5079156;28;20079;-69
2021/05/11 06:27:08;;;;;;;4.13;3.10;;;14.00;99.90;;;;;;5089908;28;20040;-69
2021/05/11 06:29:39;;;;;;;4.00;2.78;;;13.90;99.90;;;;;;5078419;28;20146;-69
2021/05/11 06:32:06;;;;;;;4.15;3.15;;;13.90;99.90;;;;;;5086602;28;20055;-67
2021/05/11 06:34:33;;;;;;;4.35;3.00;;;14.00;99.90;;;;;;5068123;28;20051;-66
2021/05/11 06:37:01;;;;;;;2.92;2.63;;;14.00;99.90;;;;;;5003929;28;20055;-67
2021/05/11 06:39:27;;;;;;;3.15;2.22;;;13.90;99.90;;;;;;5068167;28;20072;-66
2021/05/11 06:42:11;;;;;;;5.20;2.85;;;13.90;99.90;;;;;;5077000;28;20180;-66
2021/05/11 06:47:33;;;;;;;2.65;1.90;;;13.90;99.90;;;;;;5059379;28;20041;-67
2021/05/11 06:52:55;;;;;;;5.03;2.83;;;14.00;99.90;;;;;;5057085;28;20049;-65
2021/05/11 06:55:18;;;;;;;5.25;2.80;;;13.90;99.90;;;;;;5085479;28;20120;-67
2021/05/11 06:57:43;;;;;;;5.28;2.78;;;13.80;99.90;;;;;;5062374;28;20041;-65
2021/05/11 07:00:10;;;;;;;4.45;2.90;;;13.90;99.90;;;;;;5092477;28;20805;-65
2021/05/11 07:02:35;;;;;;;2.90;2.60;;;14.00;99.90;;;;;;5072460;28;20045;-65
2021/05/11 07:05:02;;;;;;;4.55;2.47;;;13.90;99.90;;;;;;5093103;28;20063;-65
2021/05/11 07:07:30;;;;;;;3.90;3.03;;;13.90;99.90;;;;;;5070941;28;20049;-65
2021/05/11 07:15:16;;;;;;;5.28;4.10;;;14.20;99.90;;;;;;5093108;28;20560;-65
2021/05/11 07:17:42;;;;;;;5.68;3.75;;;14.20;99.90;;;;;;5068484;28;20052;-67
2021/05/11 07:20:08;;;;;;;6.40;4.63;;;14.30;99.90;;;;;;5084397;28;20586;-64
2021/05/11 07:22:34;;;;;;;5.05;4.07;;;14.30;99.90;;;;;;5057470;28;20044;-65
2021/05/11 07:25:00;;;;;;;5.57;4.57;;;14.30;99.90;;;;;;5080867;28;20588;-64
2021/05/11 07:29:56;;;;;;;5.88;4.65;;;14.40;99.90;;;;;;5081243;28;20047;-64
2021/05/11 07:32:23;;;;;;;8.02;4.95;;;14.40;99.90;;;;;;5057906;28;20323;-65
2021/05/11 07:34:53;;;;;;;6.80;4.65;;;14.40;99.90;;;;;;5076766;28;20078;-66
2021/05/11 07:37:18;;;;;;;;;;;14.40;99.90;;;;;;5052922;28;20045;-67
2021/05/11 07:39:47;;;;;;;5.95;5.35;;;14.40;99.90;;;;;;5078831;28;19945;-67
2021/05/11 07:42:13;;;;;;;7.05;5.88;;;14.40;99.90;;;;;;5064132;28;20100;-67
2021/05/11 07:44:46;;;;;;;9.65;6.13;;;14.50;99.90;;;;;;5074723;28;20059;-67
2021/05/11 08:16:32;;;;;;;6.03;4.65;;;15.30;99.90;;;;;;5092323;28;20135;-67
2021/05/11 08:19:39;;;;;;;4.43;3.85;;;15.30;99.90;;;;;;5058652;28;20080;-69
2021/05/11 08:29:30;;;;;;;3.90;3.22;;;15.40;99.90;;;;;;5069689;28;20211;-69
2021/05/11 08:31:56;;;;;;;4.97;3.28;;;15.30;99.90;;;;;;5074396;28;20113;-67
2021/05/11 08:34:23;;;;;;;4.13;3.13;;;15.30;99.90;;;;;;5068959;28;20051;-68
2021/05/11 08:36:48;;;;;;;3.95;3.00;;;15.40;99.90;;;;;;5061386;28;20075;-69
2021/05/11 08:39:14;;;;;;;4.97;3.25;;;15.40;99.90;;;;;;5065545;28;20043;-69
2021/05/11 08:41:40;;;;;;;5.68;3.38;;;15.50;99.90;;;;;;5077498;28;20040;-69
2021/05/11 08:44:12;;;;;;;3.50;3.03;;;15.60;99.90;;;;;;5065123;28;20523;-69
2021/05/11 08:46:39;;;;;;;4.60;2.70;;;15.60;99.90;;;;;;5078306;28;20373;-69
2021/05/11 08:49:06;;;;;;;4.65;2.97;;;15.70;99.90;;;;;;5064290;28;20477;-68
2021/05/11 08:51:39;;;;;;;3.58;2.70;;;15.70;99.90;;;;;;5078963;28;20124;-69
2021/05/11 09:26:57;;;;;;;3.13;2.20;;;16.60;99.90;;;;;;5094645;28;20048;-68
2021/05/11 09:34:58;;;;;;;;;;;16.60;99.90;;;;;;5072836;28;20044;-67
2021/05/11 09:50:59;;;;;;;2.20;1.10;;;16.70;99.90;;;;;;5082394;28;20053;-68
2021/05/11 09:57:12;;;;;;;1.05;1.02;;;17.00;99.90;;;;;;5065955;28;20306;-68
2021/05/11 10:48:19;;;;;;;3.08;1.30;;;17.00;99.90;;;;;;5053303;28;20057;-69
2021/05/11 10:51:07;;;;;;;2.28;1.80;;;16.90;99.90;;;;;;5076680;28;20059;-67
2021/05/11 10:54:03;;;;;;;2.85;1.73;;;16.80;99.90;;;;;;5060168;28;20045;-69
2021/05/11 10:56:37;;;;;;;1.70;1.52;;;16.80;99.90;;;;;;5043940;28;20053;-67
2021/05/11 11:01:59;;;;;;;2.90;2.35;;;17.00;99.90;;;;;;5066982;28;20060;-68
2021/05/11 11:04:32;;;;;;;3.47;2.53;;;17.00;99.90;;;;;;5068976;28;20087;-68
2021/05/11 11:06:58;;;;;;;2.40;2.20;;;17.00;99.90;;;;;;5084530;28;20075;-68
2021/05/11 11:09:32;;;;;;;2.88;2.67;;;16.80;99.90;;;;;;5067693;28;20093;-67
2021/05/11 11:12:00;;;;;;;3.97;3.58;;;16.80;99.90;;;;;;5090350;28;20040;-68
2021/05/11 11:14:34;;;;;;;3.90;3.55;;;16.90;99.90;;;;;;5066650;28;20078;-67
2021/05/11 11:17:01;;;;;;;4.30;3.90;;;16.90;99.90;;;;;;5090389;28;20060;-68
2021/05/11 11:19:28;;;;;;;4.10;3.78;;;16.80;99.90;;;;;;5060288;28;20103;-68
2021/05/11 11:24:31;;;;;;;3.47;3.17;;;16.60;99.90;;;;;;5065504;28;20051;-67
2021/05/11 11:26:58;;;;;;;3.65;2.72;;;16.50;99.90;;;;;;5074133;28;20067;-68
2021/05/11 11:29:25;;;;;;;4.30;3.50;;;16.40;99.90;;;;;;5072624;28;20295;-67
2021/05/11 11:31:52;;;;;;;3.38;3.05;;;16.30;99.90;;;;;;5099813;28;20127;-68
2021/05/11 11:34:32;;;;;;;3.30;3.00;;;16.40;99.90;;;;;;5072950;28;20048;-67
2021/05/11 11:37:02;;;;;;;;;;;16.40;99.90;;;;;;5085877;28;20123;-67
2021/05/11 11:39:34;;;;;;;4.05;2.97;;;16.30;99.90;;;;;;5072369;28;19927;-68
2021/05/11 11:42:06;;;;;;;3.20;2.63;;;16.30;99.90;;;;;;5097228;28;20051;-67
2021/05/11 11:44:39;;;;;;;3.13;2.40;;;16.30;99.90;;;;;;5066558;28;20133;-67
2021/05/11 11:47:07;;;;;;;2.03;1.83;;;16.30;99.90;;;;;;5070927;28;20143;-68
2021/05/11 11:49:37;;;;;;;2.83;2.33;;;16.40;99.90;;;;;;5065601;28;20112;-67
2021/05/11 11:59:34;;;;;;;2.90;2.60;;;16.30;99.90;;;;;;5075625;28;20044;-69
2021/05/11 12:02:02;;;;;;;2.80;2.50;;;16.30;99.90;;;;;;5072080;28;20041;-68
2021/05/11 12:04:28;;;;;;;4.70;2.53;;;16.50;99.90;;;;;;5057935;28;20048;-69
2021/05/11 12:07:01;;;;;;;3.55;2.53;;;16.40;99.90;;;;;;5082811;28;20107;-69
2021/05/11 12:09:27;;;;;;;13.52;3.58;;;16.40;99.90;;;;;;5055721;28;20048;-68
2021/05/11 12:11:53;;;;;;;3.20;2.50;;;16.40;99.90;;;;;;5083841;28;20047;-69
2021/05/11 12:14:19;;;;;;;3.88;2.40;;;16.40;99.90;;;;;;5060102;28;20101;-69
2021/05/11 12:16:47;;;;;;;3.45;2.20;;;16.40;99.90;;;;;;5072580;28;20116;-69
2021/05/11 12:19:17;;;;;;;6.80;2.70;;;16.30;99.90;;;;;;5058503;28;20102;-68
2021/05/11 12:21:52;;;;;;;;;;;16.30;99.90;;;;;;5071999;28;20075;-68
2021/05/11 12:24:19;;;;;;;26.10;4.95;;;16.30;99.90;;;;;;5056950;28;19995;-69
2021/05/11 12:26:45;;;;;;;7.50;3.15;;;16.40;99.90;;;;;;5095201;28;20052;-69
2021/05/11 12:29:16;;;;;;;16.70;3.40;;;16.40;99.90;;;;;;5054886;28;20044;-68
2021/05/11 12:31:47;;;;;;;13.85;3.97;;;16.40;99.90;;;;;;5088323;28;20040;-68
2021/05/11 12:34:16;;;;;;;18.85;3.85;;;16.30;99.90;;;;;;5057509;28;20056;-68
2021/05/11 12:36:46;;;;;;;9.52;2.95;;;16.30;99.90;;;;;;5079813;28;20131;-68
2021/05/11 12:39:27;;;;;;;25.95;4.70;;;16.20;99.90;;;;;;5055370;28;20060;-68
2021/05/11 12:42:13;;;;;;;13.40;3.95;;;16.20;99.90;;;;;;5099441;28;20044;-69
2021/05/11 12:44:39;;;;;;;9.10;2.30;;;16.10;99.90;;;;;;5063472;28;20044;-70
2021/05/11 12:47:06;;;;;;;9.15;2.22;;;16.10;99.90;;;;;;5068880;28;20053;-70
2021/05/11 12:49:32;;;;;;;7.93;2.00;;;16.00;99.90;;;;;;5057184;28;20433;-68
2021/05/11 12:51:59;;;;;;;3.22;1.80;;;16.00;99.90;;;;;;5097027;28;20052;-67
2021/05/11 12:54:44;;;;;;;5.43;1.90;;;15.90;99.90;;;;;;5059657;28;20120;-70
2021/05/11 12:57:15;;;;;;;4.07;1.63;;;15.90;99.90;;;;;;5085031;28;20119;-71
2021/05/11 12:59:56;;;;;;;3.08;1.75;;;16.00;99.90;;;;;;5072063;28;20039;-71
2021/05/11 13:32:30;;;;;;;1.90;1.40;;;15.80;99.90;;;;;;5069261;28;20048;-73
2021/05/11 13:34:56;;;;;;;2.60;1.58;;;15.80;99.90;;;;;;5059863;28;20063;-72
2021/05/11 13:37:27;;;;;;;2.00;1.90;;;15.70;99.90;;;;;;5029708;28;20045;-71
2021/05/11 13:39:54;;;;;;;2.83;2.03;;;15.60;99.90;;;;;;5039227;28;20044;-71
2021/05/11 13:42:20;;;;;;;4.53;2.60;;;15.50;99.90;;;;;;5072634;28;20532;-72
2021/05/11 13:44:48;;;;;;;2.90;2.38;;;15.50;99.90;;;;;;5054093;28;20124;-73
2021/05/11 13:47:14;;;;;;;2.10;1.90;;;15.50;99.90;;;;;;5080949;28;20059;-73
2021/05/11 13:49:40;;;;;;;4.20;1.80;;;15.50;99.90;;;;;;5060430;28;20135;-66
2021/05/11 13:52:06;;;;;;;2.38;1.92;;;15.50;99.90;;;;;;5068877;28;20057;-71
2021/05/11 13:54:32;;;;;;;2.92;1.80;;;15.60;99.90;;;;;;5048242;28;20060;-71
2021/05/11 14:04:55;;;;;;;2.38;1.40;;;15.70;99.90;;;;;;5057437;28;20059;-71
2021/05/11 14:07:20;;;;;;;2.67;1.30;;;15.70;99.90;;;;;;5085134;28;20045;-68
2021/05/11 14:09:46;;;;;;;2.50;1.58;;;15.80;99.90;;;;;;5057140;28;20044;-71
2021/05/11 14:12:12;;;;;;;2.88;1.45;;;15.80;99.90;;;;;;5084196;28;20044;-71
2021/05/11 14:14:38;;;;;;;2.22;1.67;;;15.80;99.90;;;;;;5052949;28;20045;-71
2021/05/11 14:17:04;;;;;;;1.90;1.50;;;15.80;99.90;;;;;;5087461;28;20044;-70
2021/05/11 14:19:31;;;;;;;2.00;1.77;;;15.90;99.90;;;;;;5050909;28;20100;-71
2021/05/11 14:21:58;;;;;;;2.35;1.70;;;16.00;99.90;;;;;;5089877;28;20049;-72
2021/05/11 14:24:25;;;;;;;2.78;1.70;;;16.10;99.90;;;;;;5056987;28;20693;-71
2021/05/11 14:26:50;;;;;;;3.05;1.60;;;16.20;99.90;;;;;;5060002;28;20041;-71
2021/05/11 14:29:16;;;;;;;1.75;1.50;;;16.20;99.90;;;;;;5029541;28;20044;-71
2021/05/11 14:31:42;;;;;;;2.70;1.88;;;16.20;99.90;;;;;;5088842;28;20047;-71
2021/05/11 14:34:09;;;;;;;2.90;1.88;;;16.30;99.90;;;;;;5064085;28;20045;-71
2021/05/11 14:36:36;;;;;;;3.50;1.85;;;16.40;99.90;;;;;;5066062;28;20147;-72
2021/05/11 14:39:04;;;;;;;1.77;1.67;;;16.50;99.90;;;;;;5059769;28;20041;-72
2021/05/11 14:41:31;;;;;;;2.83;1.80;;;16.50;99.90;;;;;;5083256;28;20048;-71
2021/05/11 14:43:59;;;;;;;2.42;2.22;;;16.50;99.90;;;;;;5071499;28;20051;-72
2021/05/11 14:46:25;;;;;;;2.17;1.60;;;16.50;99.90;;;;;;5078669;28;20060;-71
2021/05/11 14:48:51;;;;;;;4.47;1.50;;;16.50;99.90;;;;;;5072505;28;20055;-72
2021/05/11 14:51:17;;;;;;;3.90;1.75;;;16.40;99.90;;;;;;5078430;28;20622;-72
2021/05/11 14:53:43;;;;;;;1.63;1.13;;;16.40;99.90;;;;;;5073445;28;20645;-72
2021/05/11 14:56:09;;;;;;;2.05;1.70;;;16.40;99.90;;;;;;5063960;28;20394;-72
2021/05/11 14:58:36;;;;;;;2.22;1.35;;;16.30;99.90;;;;;;5064271;28;20151;-71
2021/05/11 15:01:02;;;;;;;2.53;1.30;;;16.30;99.90;;;;;;5082914;28;20115;-71
2021/05/11 15:03:28;;;;;;;2.65;1.40;;;16.30;99.90;;;;;;5065010;28;20063;-72
2021/05/11 15:05:54;;;;;;;4.15;1.30;;;16.10;99.90;;;;;;5076323;28;20056;-72
2021/05/11 15:08:20;;;;;;;3.33;1.67;;;16.10;99.90;;;;;;5080185;28;20044;-72
2021/05/11 15:10:46;;;;;;;5.50;1.83;;;16.20;99.90;;;;;;5062367;28;20056;-72
2021/05/11 15:13:13;;;;;;;3.22;2.10;;;16.10;99.90;;;;;;5064004;28;20037;-72
2021/05/11 15:15:40;;;;;;;3.00;1.88;;;16.00;99.90;;;;;;5068689;28;20052;-73
2021/05/11 15:18:06;;;;;;;7.97;3.95;;;15.90;99.90;;;;;;5072086;28;20045;-71
2021/05/11 15:20:34;;;;;;;13.80;6.68;;;15.90;99.90;;;;;;5058499;28;20049;-71
2021/05/11 15:23:01;;;;;;;5.78;4.10;;;15.90;99.90;;;;;;5072504;28;20272;-75
2021/05/11 15:25:28;;;;;;;5.45;3.10;;;16.00;99.90;;;;;;5055149;28;20056;-72
2021/05/11 15:27:55;;;;;;;3.33;2.35;;;16.00;99.90;;;;;;5070450;28;20040;-71
2021/05/11 15:30:23;;;;;;;5.15;3.03;;;15.70;99.90;;;;;;5062380;28;20170;-73
2021/05/11 15:32:55;;;;;;;2.95;2.28;;;15.60;99.90;;;;;;5089636;28;20041;-74
2021/05/11 15:35:23;;;;;;;4.40;2.63;;;15.50;99.90;;;;;;5063921;28;20100;-75
2021/05/11 15:38:04;;;;;;;2.72;2.03;;;15.50;99.90;;;;;;5071589;28;20614;-73
2021/05/11 15:40:36;;;;;;;3.88;2.60;;;15.50;99.90;;;;;;5072063;28;20142;-73
2021/05/11 15:43:04;;;;;;;3.15;1.98;;;15.60;99.90;;;;;;5082940;28;20132;-73
2021/05/11 15:45:31;;;;;;;5.05;2.60;;;15.60;99.90;;;;;;5067235;28;20051;-73
2021/05/11 15:48:01;;;;;;;4.82;2.83;;;15.50;99.90;;;;;;5090242;28;20057;-72
2021/05/11 15:50:30;;;;;;;2.70;1.92;;;15.40;99.90;;;;;;5063250;28;20123;-72
2021/05/11 15:53:02;;;;;;;4.93;2.55;;;15.40;99.90;;;;;;5083853;28;20041;-73
2021/05/11 15:55:36;;;;;;;5.30;3.13;;;15.30;99.90;;;;;;5058270;28;20044;-72
2021/05/11 15:58:02;;;;;;;5.68;3.05;;;15.20;99.90;;;;;;5087742;28;20068;-74
2021/05/11 16:00:30;;;;;;;5.28;3.10;;;15.20;99.90;;;;;;5062645;28;20051;-72
2021/05/11 16:02:56;;;;;;;3.88;3.30;;;15.20;99.90;;;;;;5091073;28;20500;-69
2021/05/11 16:05:22;;;;;;;6.78;3.70;;;15.10;99.90;;;;;;5053950;28;20116;-73
2021/05/11 16:07:49;;;;;;;4.38;3.28;;;15.10;99.90;;;;;;5089580;28;20121;-72
2021/05/11 16:10:15;;;;;;;5.93;3.60;;;15.10;99.90;;;;;;5053763;28;20051;-72
2021/05/11 16:12:42;;;;;;;4.55;3.15;;;15.10;99.90;;;;;;5096905;28;20066;-73
2021/05/11 16:15:12;;;;;;;3.80;3.40;;;15.00;99.90;;;;;;5060474;28;20067;-72
2021/05/11 16:17:39;;;;;;;6.93;3.85;;;15.10;99.90;;;;;;5099332;28;20048;-72
2021/05/11 16:20:07;;;;;;;4.38;3.28;;;15.10;99.90;;;;;;5065428;28;20129;-73
2021/05/11 16:22:34;;;;;;;4.80;3.20;;;15.10;99.90;;;;;;5091047;28;20136;-72
2021/05/11 16:25:00;;;;;;;4.38;3.30;;;15.10;99.90;;;;;;5062443;28;20040;-74
2021/05/11 16:27:26;;;;;;;5.43;3.55;;;15.10;99.90;;;;;;5071398;28;20055;-71
2021/05/11 16:29:52;;;;;;;3.55;3.20;;;15.10;99.90;;;;;;5075351;28;20108;-73
2021/05/11 16:32:18;;;;;;;5.00;3.30;;;15.10;99.90;;;;;;5068275;28;20040;-69
2021/05/11 16:34:44;;;;;;;4.18;3.13;;;15.10;99.90;;;;;;5037607;28;20152;-74
2021/05/11 16:37:10;;;;;;;5.22;3.17;;;15.10;99.90;;;;;;5050972;28;20072;-73
2021/05/11 16:39:37;;;;;;;5.93;3.70;;;15.10;99.90;;;;;;5058602;28;20560;-74
2021/05/11 16:42:04;;;;;;;5.35;3.80;;;15.10;99.90;;;;;;5038619;28;20061;-72
2021/05/11 16:44:30;;;;;;;4.30;3.90;;;15.20;99.90;;;;;;5023658;28;20042;-72
2021/05/11 16:46:57;;;;;;;5.75;4.97;;;15.10;99.90;;;;;;5026855;28;20056;-73
2021/05/11 16:49:23;;;;;;;5.60;4.90;;;15.10;99.90;;;;;;5025293;28;20067;-73
2021/05/11 16:51:49;;;;;;;6.20;4.80;;;15.10;99.90;;;;;;5026038;28;20045;-72
2021/05/11 16:54:16;;;;;;;6.32;4.82;;;15.00;99.90;;;;;;5025033;28;20045;-73
2021/05/11 16:56:42;;;;;;;5.40;4.90;;;14.90;99.90;;;;;;5024989;28;20069;-73
2021/05/11 16:59:08;;;;;;;5.28;4.80;;;14.90;99.90;;;;;;5025579;28;20118;-73
2021/05/11 17:01:35;;;;;;;6.93;5.70;;;14.80;99.90;;;;;;5019619;28;20053;-72
2021/05/11 17:04:02;;;;;;;6.03;5.50;;;14.80;99.90;;;;;;5020846;28;20041;-74
2021/05/11 17:06:30;;;;;;;6.38;5.10;;;14.70;99.90;;;;;;5022567;28;20063;-73
2021/05/11 17:08:56;;;;;;;5.95;5.03;;;14.70;99.90;;;;;;5035911;28;20045;-73
2021/05/11 17:11:22;;;;;;;5.57;4.93;;;14.60;99.90;;;;;;5028991;28;20088;-74
2021/05/11 17:13:48;;;;;;;7.07;5.10;;;14.60;99.90;;;;;;5032768;28;20042;-74
2021/05/11 17:16:15;;;;;;;6.13;5.53;;;14.70;99.90;;;;;;5030028;28;20060;-73
2021/05/11 17:18:41;;;;;;;7.38;5.38;;;14.70;99.90;;;;;;5032794;28;20056;-73
2021/05/11 17:21:10;;;;;;;6.60;5.30;;;14.60;99.90;;;;;;5016489;28;20060;-74